createdAt,value
2023-01-04T00:01:56.845Z,26.90
2023-01-04T00:06:53.045Z,26.42
2023-01-04T00:11:49.260Z,24.92
2023-01-04T00:16:45.622Z,24.17
2023-01-04T00:21:41.924Z,22.95
2023-01-04T00:26:38.252Z,20.73
2023-01-04T00:31:35.147Z,20.00
2023-01-04T00:36:32.187Z,20.52
2023-01-04T00:41:57.556Z,18.70
2023-01-04T00:46:44.867Z,17.45
2023-01-04T00:51:41.900Z,15.07
2023-01-04T00:56:38.193Z,16.50
2023-01-04T01:01:34.554Z,14.88
2023-01-04T01:06:31.494Z,13.82
2023-01-04T01:11:28.378Z,13.55
2023-01-04T01:16:53.015Z,14.77
2023-01-04T01:21:41.724Z,13.77
2023-01-04T01:26:37.965Z,13.75
2023-01-04T01:31:34.307Z,13.40
2023-01-04T01:36:30.635Z,13.10
2023-01-04T01:41:28.670Z,12.52
2023-01-04T01:46:37.151Z,12.45
2023-01-04T01:51:33.882Z,12.38
2023-01-04T01:56:30.511Z,12.70
2023-01-04T02:01:27.170Z,12.10
2023-01-04T02:06:32.595Z,12.55
2023-01-04T02:11:28.946Z,11.20
2023-01-04T02:16:34.172Z,12.45
2023-01-04T02:21:48.006Z,11.10
2023-01-04T02:26:51.797Z,10.95
2023-01-04T02:31:51.569Z,10.90
2023-01-04T02:37:04.159Z,10.90
2023-01-04T02:42:15.434Z,11.02
2023-01-04T02:47:14.696Z,11.00
2023-01-04T02:52:11.230Z,10.73
2023-01-04T02:57:26.393Z,10.23
2023-01-04T03:02:53.597Z,9.70
2023-01-04T03:07:54.385Z,10.20
2023-01-04T03:12:54.767Z,8.85
2023-01-04T03:17:57.927Z,9.70
2023-01-04T03:23:15.276Z,11.05
2023-01-04T03:28:32.462Z,9.60
2023-01-04T03:33:47.648Z,9.63
2023-01-04T03:39:04.686Z,10.45
2023-01-04T03:44:28.930Z,10.80
2023-01-04T03:49:29.762Z,13.45
2023-01-04T03:54:29.642Z,15.13
2023-01-04T03:59:26.040Z,16.80
2023-01-04T04:04:41.256Z,18.95
2023-01-04T04:09:37.453Z,19.45
2023-01-04T04:14:33.688Z,23.85
2023-01-04T04:19:29.922Z,29.85
2023-01-04T04:24:26.627Z,27.92
2023-01-04T04:29:23.783Z,32.17
2023-01-04T04:34:20.129Z,33.63
2023-01-04T04:39:16.467Z,34.47
2023-01-04T04:44:14.137Z,36.60
2023-01-04T04:49:10.871Z,37.58
2023-01-04T04:54:07.821Z,39.03
2023-01-04T04:59:04.841Z,44.10
2023-01-04T05:04:01.239Z,44.10
2023-01-04T05:08:57.536Z,45.35
2023-01-04T05:13:53.804Z,47.40
2023-01-04T05:18:50.112Z,48.70
2023-01-04T05:23:46.420Z,49.92
2023-01-04T05:28:44.135Z,49.45
2023-01-04T05:33:43.404Z,49.65
2023-01-04T05:38:39.697Z,49.55
2023-01-04T05:43:35.956Z,49.65
2023-01-04T05:48:32.270Z,50.75
2023-01-04T05:53:28.477Z,49.20
2023-01-04T05:58:24.720Z,47.92
2023-01-04T06:03:21.103Z,46.28
2023-01-04T06:08:17.721Z,47.17
2023-01-04T06:13:14.227Z,48.90
2023-01-04T06:18:13.568Z,48.70
2023-01-04T06:23:10.440Z,48.83
2023-01-04T06:28:06.721Z,48.97
2023-01-04T06:33:03.074Z,50.35
2023-01-04T06:37:59.319Z,47.38
2023-01-04T06:42:55.575Z,47.28
2023-01-04T06:47:51.821Z,48.13
2023-01-04T06:52:48.144Z,46.67
2023-01-04T06:57:44.399Z,44.55
2023-01-04T07:03:14.783Z,46.70
2023-01-04T07:08:05.575Z,47.25
2023-01-04T07:13:04.823Z,45.03
2023-01-04T07:18:01.130Z,45.97
2023-01-04T07:22:57.542Z,44.58
2023-01-04T07:27:54.292Z,44.95
2023-01-04T07:32:53.925Z,44.47
2023-01-04T07:37:57.553Z,45.28
2023-01-04T07:42:56.898Z,45.92
2023-01-04T07:47:53.477Z,42.83
2023-01-04T07:52:49.714Z,48.53
2023-01-04T07:57:46.073Z,47.75
2023-01-04T08:02:42.513Z,46.08
2023-01-04T08:07:39.017Z,47.17
2023-01-04T08:12:36.806Z,45.63
2023-01-04T08:17:33.175Z,46.70
2023-01-04T08:22:29.434Z,46.33
2023-01-04T08:27:25.790Z,49.17
2023-01-04T08:32:22.081Z,45.80
2023-01-04T08:37:18.265Z,46.63
2023-01-04T08:42:22.465Z,46.15
2023-01-04T08:47:21.248Z,46.85
2023-01-04T08:52:17.503Z,26.90
2023-01-04T08:57:13.771Z,26.67
2023-01-04T09:02:22.233Z,26.02
2023-01-04T09:07:18.719Z,29.40
2023-01-04T09:12:14.983Z,32.28
2023-01-04T09:17:11.266Z,34.03
2023-01-04T09:22:07.677Z,37.58
2023-01-04T09:27:04.681Z,41.08
2023-01-04T09:32:01.220Z,42.90
2023-01-04T09:36:57.648Z,40.60
2023-01-04T09:41:58.688Z,39.22
2023-01-04T09:47:00.942Z,39.22
2023-01-04T09:52:05.331Z,39.38
2023-01-04T09:57:02.521Z,39.53
2023-01-04T10:02:04.061Z,39.85
2023-01-04T10:07:04.963Z,39.03
2023-01-04T10:12:09.374Z,43.92
2023-01-04T10:17:14.015Z,42.63
2023-01-04T10:22:16.254Z,45.05
2023-01-04T10:27:15.608Z,43.33
2023-01-04T10:32:23.887Z,43.83
2023-01-04T10:37:20.943Z,40.42
2023-01-04T10:42:37.886Z,38.38
2023-01-04T10:47:34.139Z,37.75
2023-01-04T10:52:30.461Z,41.55
2023-01-04T10:57:31.811Z,40.80
2023-01-04T11:02:44.830Z,41.03
2023-01-04T11:07:45.375Z,40.63
2023-01-04T11:12:41.661Z,41.85
2023-01-04T11:17:38.187Z,40.85
2023-01-04T11:22:37.530Z,40.00
2023-01-04T11:28:00.215Z,39.90
2023-01-04T11:33:13.504Z,40.97
2023-01-04T11:43:15.635Z,43.03
2023-01-04T11:48:15.037Z,39.05
2023-01-04T11:53:31.703Z,40.13
2023-01-04T11:58:27.958Z,40.03
2023-01-04T12:03:40.501Z,39.55
2023-01-04T12:08:37.030Z,41.30
2023-01-04T12:13:33.889Z,40.63
2023-01-04T12:18:34.369Z,40.80
2023-01-04T12:23:30.989Z,40.65
2023-01-04T12:28:31.589Z,40.10
2023-01-04T12:33:34.016Z,41.50
2023-01-04T12:38:49.031Z,41.97
2023-01-04T12:43:47.530Z,42.72
2023-01-04T12:49:02.200Z,41.60
2023-01-04T12:53:59.297Z,43.08
2023-01-04T13:04:30.269Z,40.90
2023-01-04T13:09:26.966Z,43.50
2023-01-04T13:14:36.210Z,45.65
2023-01-04T13:19:33.054Z,45.95
2023-01-04T13:24:34.277Z,47.35
2023-01-04T13:29:31.434Z,43.45
2023-01-04T13:34:30.537Z,40.47
2023-01-04T13:39:27.247Z,43.78
2023-01-04T13:45:00.197Z,45.50
2023-01-04T13:49:51.241Z,47.25
2023-01-04T13:54:47.567Z,47.30
2023-01-04T13:59:43.828Z,48.10
2023-01-04T14:04:42.757Z,44.97
2023-01-04T14:09:49.609Z,43.60
2023-01-04T14:14:59.727Z,44.95
2023-01-04T14:20:02.276Z,45.40
2023-01-04T14:25:14.821Z,46.65
2023-01-04T14:30:22.481Z,48.67
2023-01-04T14:35:18.806Z,47.40
2023-01-04T14:40:16.179Z,48.85
2023-01-04T14:45:13.587Z,50.17
2023-01-04T14:50:09.977Z,54.83
2023-01-04T14:55:07.435Z,54.17
2023-01-04T15:00:03.833Z,54.55
2023-01-04T15:05:00.060Z,54.28
2023-01-04T15:09:56.408Z,55.95
2023-01-04T15:14:52.652Z,56.10
2023-01-04T15:19:48.960Z,53.63
2023-01-04T15:24:45.372Z,52.13
2023-01-04T15:29:41.692Z,52.60
2023-01-04T15:34:41.954Z,50.17
2023-01-04T15:39:43.015Z,51.20
2023-01-04T15:44:39.273Z,49.45
2023-01-04T15:49:35.480Z,48.95
2023-01-04T15:54:31.703Z,50.88
2023-01-04T15:59:27.992Z,52.63
2023-01-04T16:04:24.345Z,54.42
2023-01-04T16:09:20.620Z,54.83
2023-01-04T16:14:16.854Z,52.92
2023-01-04T16:19:13.052Z,50.83
2023-01-04T16:24:37.090Z,50.08
2023-01-04T16:29:25.977Z,51.72
2023-01-04T16:34:22.277Z,50.17
2023-01-04T16:39:19.612Z,48.40
2023-01-04T16:44:15.900Z,46.20
2023-01-04T16:49:13.471Z,42.88
2023-01-04T16:54:13.494Z,42.70
2023-01-04T16:59:14.492Z,40.90
2023-01-04T17:04:11.296Z,41.90
2023-01-04T17:09:09.959Z,41.38
2023-01-04T17:14:07.170Z,43.88
2023-01-04T17:19:03.437Z,42.63
2023-01-04T17:24:00.112Z,39.13
2023-01-04T17:28:57.202Z,39.95
2023-01-04T17:33:53.910Z,37.55
2023-01-04T17:38:50.611Z,38.13
2023-01-04T17:43:47.746Z,38.15
2023-01-04T17:48:44.942Z,40.17
2023-01-04T17:53:42.025Z,38.63
2023-01-04T17:58:38.352Z,37.25
2023-01-04T18:03:34.655Z,38.35
2023-01-04T18:08:30.907Z,38.35
2023-01-04T18:13:27.116Z,38.67
2023-01-04T18:18:23.340Z,37.22
2023-01-04T18:23:25.748Z,36.83
2023-01-04T18:28:23.648Z,37.20
2023-01-04T18:33:19.891Z,34.17
2023-01-04T18:38:16.155Z,34.40
2023-01-04T18:43:12.422Z,37.45
2023-01-04T18:48:08.767Z,37.95
2023-01-04T18:53:05.113Z,41.83
2023-01-04T18:58:01.375Z,47.20
2023-01-04T19:02:57.894Z,46.55
2023-01-04T19:07:54.826Z,45.83
2023-01-04T19:12:51.065Z,46.42
2023-01-04T19:17:47.325Z,45.08
2023-01-04T19:22:43.552Z,46.00
2023-01-04T19:27:39.859Z,47.38
2023-01-04T19:32:36.094Z,50.78
2023-01-04T19:37:32.369Z,48.58
2023-01-04T19:42:28.630Z,45.97
2023-01-04T19:47:25.004Z,47.08
2023-01-04T19:52:21.335Z,44.58
2023-01-04T19:57:17.552Z,42.83
2023-01-04T20:02:13.974Z,43.25
2023-01-04T20:07:10.439Z,41.90
2023-01-04T20:12:06.882Z,40.00
2023-01-04T20:17:03.186Z,41.65
2023-01-04T20:21:59.384Z,44.33
2023-01-04T20:26:55.805Z,40.38
2023-01-04T20:31:52.147Z,37.50
2023-01-04T20:36:48.467Z,39.28
2023-01-04T20:42:03.597Z,41.63
2023-01-04T20:46:59.946Z,43.35
2023-01-04T20:51:56.207Z,43.92
2023-01-04T20:56:52.431Z,40.45
2023-01-04T21:01:48.797Z,40.25
2023-01-04T21:06:45.139Z,41.97
2023-01-04T21:11:41.479Z,42.35
2023-01-04T21:16:41.196Z,41.97
2023-01-04T21:21:37.857Z,43.80
2023-01-04T21:26:34.235Z,45.30
2023-01-04T21:31:30.567Z,46.20
2023-01-04T21:36:27.547Z,45.17
2023-01-04T21:41:24.771Z,44.65
2023-01-04T21:46:21.821Z,47.58
2023-01-04T21:51:18.575Z,48.22
2023-01-04T21:56:16.406Z,51.40
2023-01-04T22:01:14.042Z,57.78
2023-01-04T22:06:10.930Z,51.13
2023-01-04T22:11:07.800Z,49.58
2023-01-04T22:16:04.853Z,47.80
2023-01-04T22:21:23.578Z,48.22
2023-01-04T22:26:20.178Z,42.65
2023-01-04T22:31:16.455Z,43.28
2023-01-04T22:36:21.724Z,41.30
2023-01-04T22:41:21.420Z,35.40
2023-01-04T22:46:18.133Z,37.10
2023-01-04T22:51:15.403Z,38.83
2023-01-04T22:56:22.455Z,40.97
2023-01-04T23:01:20.579Z,40.53
2023-01-04T23:06:16.866Z,38.25
2023-01-04T23:11:17.204Z,35.60
2023-01-04T23:16:14.640Z,31.88
2023-01-04T23:21:11.536Z,29.50
2023-01-04T23:26:09.030Z,31.10
2023-01-04T23:31:06.286Z,32.83
2023-01-04T23:36:06.974Z,37.17
2023-01-04T23:41:03.281Z,38.03
2023-01-04T23:45:59.529Z,40.40
2023-01-04T23:50:56.796Z,39.83
2023-01-04T23:56:00.450Z,42.33
